Terminal Aerodrome Forecast
Issued by NWS Denver/Boulder, CO

Home | Current Version | Previous Version | Graphics & Text | Print | Product List | Glossary On
Versions: 1 2 3 4 5 6 7 8 9 10 11 12 13 14 15 16 17 18 19 20 21 22 23 24 25 26 27 28 29 30 31 32 33 34 35 36 37 38 39 40 41 42 43 44 45 46 47 48 49 50
000
FTUS45 KBOU 241123
TAFDEN
TAF
KDEN 241123Z 2412/2518 25006KT P6SM SCT250
     FM241900 34010G18KT P6SM FEW140 SCT220
     FM242100 30015G28KT P6SM FEW080 SCT220
     FM250100 03012KT P6SM SCT120 BKN200
     FM250600 08010KT P6SM FEW140 SCT220
     FM251200 18008KT P6SM SCT140 BKN220
     FM251600 22006KT P6SM SCT140 BKN220=

USA.gov is the U.S. government's official web portal to all federal, state and local government web resources and services.